Time;durP1;ratioP1;P1;durP2;ratioP2;P2;SDS_P1;SDS_P2;PMS_P1;PMS_P2;Temp;Humidity;BMP_temperature;BMP_pressure;BME280_temperature;BME280_humidity;BME280_pressure;Samples;Min_cycle;Max_cycle;Signal;HPM_P1;HPM_P2
2022/04/01 00:00:37;;;;;;;1.60;1.40;;;4.40;98.20;;;;;;5027941;28;20463;-75
2022/04/01 00:03:04;;;;;;;1.57;1.30;;;4.40;98.20;;;;;;5024866;28;20491;-75
2022/04/01 00:05:33;;;;;;;1.60;1.40;;;4.40;98.20;;;;;;5028132;28;21121;-75
2022/04/01 00:08:00;;;;;;;1.60;1.30;;;4.40;98.20;;;;;;5025916;28;20863;-75
2022/04/01 00:10:27;;;;;;;2.43;2.23;;;4.40;98.20;;;;;;5026503;28;21117;-75
2022/04/01 00:12:56;;;;;;;1.57;1.30;;;4.40;98.20;;;;;;5032912;28;20479;-75
2022/04/01 00:15:23;;;;;;;1.60;1.40;;;4.30;98.20;;;;;;5027673;28;20490;-75
2022/04/01 00:17:51;;;;;;;1.57;1.40;;;4.30;98.20;;;;;;5031462;28;20736;-75
2022/04/01 00:20:19;;;;;;;1.53;1.30;;;4.30;98.20;;;;;;5029439;28;20466;-74
2022/04/01 00:22:48;;;;;;;1.53;1.30;;;4.20;98.20;;;;;;5030239;28;20541;-75
2022/04/01 00:25:15;;;;;;;1.57;1.40;;;4.20;98.20;;;;;;5031230;28;20463;-75
2022/04/01 00:27:43;;;;;;;1.60;1.30;;;4.20;98.20;;;;;;5032635;28;20470;-75
2022/04/01 00:30:12;;;;;;;1.57;1.20;;;4.20;98.20;;;;;;5024819;28;20550;-75
2022/04/01 00:32:40;;;;;;;2.10;1.93;;;4.10;98.20;;;;;;5036500;28;20860;-75
2022/04/01 00:35:10;;;;;;;1.60;1.40;;;4.10;98.20;;;;;;5024144;28;20575;-75
2022/04/01 00:37:38;;;;;;;1.57;1.30;;;4.10;98.20;;;;;;5031654;28;20471;-75
2022/04/01 00:40:06;;;;;;;1.53;1.30;;;4.10;98.20;;;;;;5030226;28;20609;-75
2022/04/01 00:42:34;;;;;;;1.60;1.50;;;4.00;98.20;;;;;;5028227;28;20479;-74
2022/04/01 00:45:01;;;;;;;1.53;1.30;;;4.00;98.20;;;;;;5027132;28;21034;-75
2022/04/01 00:47:28;;;;;;;1.60;1.30;;;4.00;98.20;;;;;;5030741;28;20465;-75
2022/04/01 00:49:55;;;;;;;1.53;1.30;;;3.90;98.20;;;;;;5025646;28;20471;-75
2022/04/01 00:52:23;;;;;;;1.60;1.40;;;3.90;98.20;;;;;;5029909;28;20999;-75
2022/04/01 00:54:52;;;;;;;1.60;1.40;;;3.90;98.20;;;;;;5031294;28;20463;-75
2022/04/01 00:57:21;;;;;;;1.60;1.47;;;3.90;98.20;;;;;;5032416;28;20471;-75
2022/04/01 00:59:50;;;;;;;1.60;1.30;;;3.90;98.20;;;;;;5030331;28;20587;-75
2022/04/01 01:02:18;;;;;;;1.57;1.30;;;3.80;98.20;;;;;;5029882;28;20494;-75
2022/04/01 01:04:46;;;;;;;1.57;1.33;;;3.80;98.20;;;;;;5032290;28;20574;-75
2022/04/01 01:07:15;;;;;;;1.60;1.40;;;3.80;98.20;;;;;;5030536;28;20471;-75
2022/04/01 01:09:44;;;;;;;1.60;1.50;;;3.80;98.20;;;;;;5029273;28;20517;-75
2022/04/01 01:12:13;;;;;;;1.57;1.30;;;3.80;98.20;;;;;;5035869;28;20467;-75
2022/04/01 01:14:41;;;;;;;1.57;1.30;;;3.80;98.20;;;;;;5030196;28;20982;-75
2022/04/01 01:17:12;;;;;;;1.60;1.30;;;3.80;98.20;;;;;;5029393;28;20495;-75
2022/04/01 01:19:39;;;;;;;1.60;1.40;;;3.80;98.20;;;;;;5028242;28;20455;-75
2022/04/01 01:22:08;;;;;;;1.60;1.40;;;3.80;98.20;;;;;;5029222;28;20463;-75
2022/04/01 01:24:41;;;;;;;1.60;1.30;;;3.70;98.20;;;;;;5026871;28;20487;-74
2022/04/01 01:27:10;;;;;;;1.60;1.50;;;3.70;98.20;;;;;;5030247;28;20469;-75
2022/04/01 01:29:40;;;;;;;1.70;1.60;;;3.70;98.20;;;;;;5022538;28;20455;-74
2022/04/01 01:32:10;;;;;;;1.57;1.40;;;3.70;98.20;;;;;;5016467;28;21436;-74
2022/04/01 01:34:40;;;;;;;1.80;1.70;;;3.70;98.20;;;;;;5024700;28;20479;-75
2022/04/01 01:37:10;;;;;;;1.80;1.70;;;3.60;98.20;;;;;;5028228;28;20545;-75
2022/04/01 01:39:39;;;;;;;1.57;1.40;;;3.60;98.20;;;;;;5023614;28;21081;-74
2022/04/01 01:42:07;;;;;;;1.60;1.50;;;3.60;98.20;;;;;;5025360;28;20475;-74
2022/04/01 01:44:35;;;;;;;1.60;1.40;;;3.60;98.20;;;;;;5026534;28;20530;-74
2022/04/01 01:47:05;;;;;;;8.67;8.13;;;3.60;98.20;;;;;;5028007;28;20491;-74
2022/04/01 01:49:34;;;;;;;1.60;1.50;;;3.60;98.20;;;;;;5027700;28;20947;-74
2022/04/01 01:54:52;;;;;;;1.57;1.30;;;3.60;98.20;;;;;;5028970;28;21106;-74
2022/04/01 01:57:22;;;;;;;1.53;1.33;;;3.50;98.20;;;;;;5028401;28;20602;-74
2022/04/01 01:59:50;;;;;;;1.60;1.50;;;3.50;98.20;;;;;;5027401;28;20463;-75
2022/04/01 02:02:19;;;;;;;1.53;1.30;;;3.50;98.20;;;;;;5027891;28;20464;-74
2022/04/01 02:04:49;;;;;;;1.60;1.40;;;3.50;98.20;;;;;;5028527;28;20755;-74
2022/04/01 02:07:16;;;;;;;1.60;1.43;;;3.50;98.20;;;;;;5028665;28;20556;-74
2022/04/01 02:09:46;;;;;;;1.57;1.30;;;3.50;98.20;;;;;;5021253;28;20958;-74
2022/04/01 02:12:16;;;;;;;1.70;1.60;;;3.50;98.20;;;;;;5030868;28;20491;-74
2022/04/01 02:14:45;;;;;;;1.60;1.50;;;3.50;98.20;;;;;;5024927;28;20526;-74
2022/04/01 02:17:13;;;;;;;1.57;1.30;;;3.50;98.20;;;;;;5027286;28;20474;-74
2022/04/01 02:19:40;;;;;;;1.57;1.30;;;3.50;98.20;;;;;;5025916;28;20994;-75
2022/04/01 02:22:08;;;;;;;1.60;1.40;;;3.50;98.20;;;;;;5027134;28;20525;-74
2022/04/01 02:24:36;;;;;;;1.60;1.30;;;3.50;98.20;;;;;;5025656;28;20490;-74
2022/04/01 02:27:03;;;;;;;1.57;1.40;;;3.40;98.20;;;;;;5026551;28;20459;-74
2022/04/01 02:29:32;;;;;;;1.50;1.30;;;3.40;98.20;;;;;;5025268;28;20467;-74
2022/04/01 02:32:00;;;;;;;1.60;1.50;;;3.30;98.20;;;;;;5027258;28;20463;-74
2022/04/01 02:34:27;;;;;;;1.60;1.40;;;3.30;98.20;;;;;;5025368;28;20835;-74
2022/04/01 02:37:05;;;;;;;1.60;1.40;;;3.30;98.20;;;;;;5028724;28;20474;-74
2022/04/01 02:39:32;;;;;;;1.60;1.47;;;3.20;98.20;;;;;;5027255;28;20470;-75
2022/04/01 02:41:59;;;;;;;1.60;1.50;;;3.20;98.20;;;;;;5025833;28;20463;-74
2022/04/01 02:44:26;;;;;;;1.60;1.40;;;3.20;98.20;;;;;;5025065;28;20600;-74
2022/04/01 02:46:56;;;;;;;1.60;1.43;;;3.20;98.20;;;;;;5029374;28;20471;-74
2022/04/01 02:49:23;;;;;;;1.60;1.40;;;3.20;98.20;;;;;;5027020;28;20463;-74
2022/04/01 02:51:53;;;;;;;1.60;1.50;;;3.20;98.20;;;;;;5030920;28;20459;-74
2022/04/01 02:54:21;;;;;;;1.60;1.40;;;3.20;98.20;;;;;;5024054;28;20507;-74
2022/04/01 02:56:50;;;;;;;1.60;1.40;;;3.10;98.20;;;;;;5028266;28;20467;-74
2022/04/01 02:59:17;;;;;;;1.53;1.40;;;3.10;98.20;;;;;;5026583;28;20463;-74
2022/04/01 03:01:44;;;;;;;1.60;1.40;;;3.10;98.20;;;;;;5026491;28;20467;-74
2022/04/01 03:04:13;;;;;;;1.60;1.40;;;3.10;98.20;;;;;;5029059;28;20898;-74
2022/04/01 03:06:40;;;;;;;1.60;1.40;;;3.20;98.20;;;;;;5029772;28;20472;-74
2022/04/01 03:09:08;;;;;;;1.70;1.60;;;3.20;98.20;;;;;;5027111;28;20551;-74
2022/04/01 03:11:35;;;;;;;1.60;1.40;;;3.10;98.20;;;;;;5027972;28;20472;-74
2022/04/01 03:14:02;;;;;;;1.60;1.40;;;3.10;98.20;;;;;;5042958;22;20502;-80
2022/04/01 03:16:29;;;;;;;1.60;1.40;;;3.10;98.20;;;;;;5019862;28;20483;-75
2022/04/01 03:18:57;;;;;;;1.60;1.50;;;3.00;98.20;;;;;;5036970;28;20468;-75
2022/04/01 03:21:26;;;;;;;1.60;1.50;;;3.00;98.20;;;;;;5029791;28;20547;-75
2022/04/01 03:23:53;;;;;;;1.60;1.50;;;3.00;98.20;;;;;;5029609;28;21289;-77
2022/04/01 03:26:21;;;;;;;1.60;1.40;;;3.00;98.20;;;;;;5016103;28;20464;-75
2022/04/01 03:28:47;;;;;;;1.60;1.33;;;3.00;98.20;;;;;;5011668;28;20980;-77
2022/04/01 03:31:14;;;;;;;1.60;1.50;;;3.00;98.20;;;;;;5021079;28;20459;-77
2022/04/01 03:33:42;;;;;;;1.63;1.53;;;3.00;98.20;;;;;;5017170;28;20516;-76
2022/04/01 03:36:09;;;;;;;1.57;1.37;;;2.90;98.20;;;;;;5011792;28;21625;-75
2022/04/01 03:38:38;;;;;;;1.53;1.40;;;2.90;98.20;;;;;;5015541;28;20476;-75
2022/04/01 03:41:06;;;;;;;1.60;1.43;;;2.90;98.20;;;;;;5011953;28;20504;-74
2022/04/01 03:43:34;;;;;;;1.60;1.40;;;2.90;98.20;;;;;;5022415;28;20610;-76
2022/04/01 03:46:08;;;;;;;1.60;1.50;;;2.90;98.20;;;;;;5034314;28;20491;-74
2022/04/01 03:48:42;;;;;;;1.60;1.40;;;2.90;98.20;;;;;;5038645;28;20843;-75
2022/04/01 03:51:10;;;;;;;1.60;1.50;;;2.90;98.20;;;;;;5016578;28;20564;-75
2022/04/01 03:53:42;;;;;;;1.60;1.40;;;2.80;98.20;;;;;;5014247;28;20487;-75
2022/04/01 03:56:09;;;;;;;1.60;1.40;;;2.80;98.20;;;;;;5015924;28;20475;-75
2022/04/01 03:58:36;;;;;;;1.60;1.40;;;2.80;98.20;;;;;;5023864;28;20473;-77
2022/04/01 04:01:05;;;;;;;1.60;1.40;;;2.70;98.20;;;;;;5014641;28;20541;-77
2022/04/01 04:03:32;;;;;;;1.60;1.50;;;2.70;98.20;;;;;;5020599;28;20487;-79
2022/04/01 04:06:00;;;;;;;1.60;1.40;;;2.70;98.20;;;;;;5016084;28;20482;-75
2022/04/01 04:08:27;;;;;;;1.60;1.30;;;2.70;98.20;;;;;;5013137;28;20464;-76
2022/04/01 04:10:56;;;;;;;1.60;1.40;;;2.70;98.20;;;;;;5014012;28;20467;-75
2022/04/01 04:13:26;;;;;;;2.20;2.03;;;2.80;98.20;;;;;;5022327;28;20502;-77
2022/04/01 04:15:59;;;;;;;1.60;1.40;;;2.80;98.20;;;;;;5031050;28;20481;-76
2022/04/01 04:18:33;;;;;;;1.60;1.40;;;2.80;98.20;;;;;;5041191;28;20957;-77
2022/04/01 04:21:10;;;;;;;1.60;1.40;;;2.80;98.20;;;;;;5022250;28;21017;-75
2022/04/01 04:23:44;;;;;;;1.60;1.40;;;2.80;98.20;;;;;;5018088;28;20486;-76
2022/04/01 04:26:15;;;;;;;1.60;1.40;;;2.70;98.20;;;;;;5031324;28;20815;-75
2022/04/01 04:28:47;;;;;;;1.60;1.40;;;2.80;98.20;;;;;;5017645;28;20961;-75
2022/04/01 04:31:15;;;;;;;1.60;1.40;;;2.80;98.20;;;;;;5024334;28;20542;-76
2022/04/01 04:33:45;;;;;;;1.57;1.40;;;2.80;98.20;;;;;;5014287;28;20844;-75
2022/04/01 04:36:16;;;;;;;1.70;1.60;;;2.70;98.20;;;;;;5016427;28;20513;-73
2022/04/01 04:38:46;;;;;;;1.60;1.40;;;2.70;98.20;;;;;;5011682;28;20987;-74
2022/04/01 04:41:14;;;;;;;1.60;1.40;;;2.70;98.20;;;;;;5012791;28;20451;-73
2022/04/01 04:43:44;;;;;;;1.60;1.40;;;2.70;98.20;;;;;;5026800;28;20505;-75
2022/04/01 04:46:12;;;;;;;1.60;1.50;;;2.70;98.20;;;;;;5025063;28;20908;-76
2022/04/01 04:48:41;;;;;;;1.60;1.40;;;2.70;98.20;;;;;;5022423;28;20487;-76
2022/04/01 04:51:09;;;;;;;1.60;1.40;;;2.70;98.20;;;;;;5010848;28;20464;-75
2022/04/01 04:53:37;;;;;;;1.60;1.43;;;2.70;98.20;;;;;;5013229;28;20492;-76
2022/04/01 04:56:04;;;;;;;1.60;1.50;;;2.70;98.20;;;;;;5029702;28;20459;-73
2022/04/01 04:58:39;;;;;;;1.57;1.40;;;2.70;98.20;;;;;;5021892;28;21031;-73
2022/04/01 05:01:25;;;;;;;1.60;1.40;;;2.70;98.20;;;;;;5028897;28;20645;-75
2022/04/01 05:04:02;;;;;;;1.60;1.40;;;2.70;98.20;;;;;;5022803;28;20586;-75
2022/04/01 05:06:33;;;;;;;1.60;1.40;;;2.70;98.20;;;;;;5014753;28;20470;-76
2022/04/01 05:09:05;;;;;;;1.60;1.47;;;2.70;98.20;;;;;;5030736;28;20459;-75
2022/04/01 05:11:50;;;;;;;1.60;1.50;;;2.70;98.20;;;;;;5027152;28;20455;-75
2022/04/01 05:14:38;;;;;;;1.60;1.37;;;2.70;98.20;;;;;;5012907;28;20492;-75
2022/04/01 05:17:10;;;;;;;1.60;1.40;;;2.70;98.20;;;;;;5032199;28;20811;-74
2022/04/01 05:19:41;;;;;;;1.60;1.50;;;2.70;98.20;;;;;;5019369;28;20845;-74
2022/04/01 05:22:09;;;;;;;1.60;1.40;;;2.70;98.20;;;;;;5001302;28;20587;-75
2022/04/01 05:24:42;;;;;;;1.60;1.50;;;2.70;98.20;;;;;;5019229;28;20558;-74
2022/04/01 05:27:22;;;;;;;1.60;1.40;;;2.70;98.20;;;;;;5019926;28;20574;-74
2022/04/01 05:30:02;;;;;;;1.60;1.30;;;2.70;98.20;;;;;;5026565;28;20463;-73
2022/04/01 05:32:33;;;;;;;1.60;1.40;;;2.70;98.20;;;;;;5011245;28;20466;-74
2022/04/01 05:35:01;;;;;;;1.60;1.50;;;2.60;98.20;;;;;;5015774;28;20490;-72
2022/04/01 05:37:29;;;;;;;1.60;1.40;;;2.60;98.20;;;;;;5010756;28;20887;-71
2022/04/01 05:39:56;;;;;;;1.60;1.50;;;2.60;98.20;;;;;;5009626;28;20464;-73
2022/04/01 05:42:27;;;;;;;1.60;1.30;;;2.60;98.20;;;;;;5016347;28;20494;-73
2022/04/01 05:44:56;;;;;;;1.60;1.40;;;2.60;98.20;;;;;;5021689;28;20499;-73
2022/04/01 05:47:24;;;;;;;1.60;1.40;;;2.60;98.20;;;;;;5028274;28;20828;-74
2022/04/01 05:49:57;;;;;;;1.60;1.50;;;2.70;98.20;;;;;;5015404;28;20468;-75
2022/04/01 05:52:23;;;;;;;1.60;1.50;;;2.60;98.20;;;;;;5014417;28;20975;-75
2022/04/01 05:54:51;;;;;;;1.60;1.30;;;2.60;98.20;;;;;;5009814;28;20490;-72
2022/04/01 05:57:20;;;;;;;1.60;1.50;;;2.60;98.20;;;;;;5013687;28;20960;-74
2022/04/01 05:59:47;;;;;;;1.60;1.40;;;2.70;98.20;;;;;;5009264;28;20468;-74
2022/04/01 06:02:32;;;;;;;1.60;1.40;;;2.70;98.20;;;;;;5012903;28;20552;-74
2022/04/01 06:05:17;;;;;;;1.60;1.40;;;2.60;98.20;;;;;;5018931;28;20499;-77
2022/04/01 06:07:55;;;;;;;1.60;1.40;;;2.60;98.20;;;;;;5013597;28;20472;-77
2022/04/01 06:10:27;;;;;;;1.60;1.40;;;2.60;98.20;;;;;;5024122;28;20459;-77
2022/04/01 06:13:04;;;;;;;1.53;1.40;;;2.60;98.20;;;;;;5015691;28;20452;-76
2022/04/01 06:15:39;;;;;;;1.60;1.50;;;2.60;98.20;;;;;;5024359;28;20994;-76
2022/04/01 06:18:19;;;;;;;1.60;1.50;;;2.60;98.20;;;;;;5019325;28;20467;-75
2022/04/01 06:20:48;;;;;;;1.60;1.50;;;2.60;98.20;;;;;;5009652;28;20463;-78
2022/04/01 06:23:24;;;;;;;4.53;4.27;;;2.60;98.20;;;;;;5024115;28;20606;-76
2022/04/01 06:25:57;;;;;;;1.70;1.60;;;2.60;98.20;;;;;;5009782;28;21085;-74
2022/04/01 06:28:26;;;;;;;1.60;1.40;;;2.60;98.20;;;;;;5010891;28;20507;-74
2022/04/01 06:30:56;;;;;;;1.60;1.40;;;2.50;98.20;;;;;;5008632;28;20492;-75
2022/04/01 06:33:31;;;;;;;1.60;1.40;;;2.50;98.20;;;;;;5015738;28;20480;-76
2022/04/01 06:36:00;;;;;;;1.60;1.40;;;2.50;98.20;;;;;;5012022;28;20534;-77
2022/04/01 06:38:37;;;;;;;1.57;1.40;;;2.50;98.20;;;;;;5016319;28;20559;-78
2022/04/01 06:41:07;;;;;;;3.47;3.27;;;2.50;98.20;;;;;;5012638;28;20523;-78
2022/04/01 06:43:35;;;;;;;1.60;1.50;;;2.60;98.20;;;;;;5020733;28;20482;-75
2022/04/01 06:46:02;;;;;;;1.60;1.40;;;2.60;98.20;;;;;;5022549;28;20483;-74
2022/04/01 06:48:31;;;;;;;1.60;1.40;;;2.60;98.20;;;;;;5023216;28;20947;-74
2022/04/01 06:50:58;;;;;;;1.60;1.40;;;2.60;98.20;;;;;;5019885;28;20467;-77
2022/04/01 06:53:26;;;;;;;1.60;1.50;;;2.60;98.20;;;;;;5012001;28;21007;-76
2022/04/01 06:55:54;;;;;;;1.60;1.40;;;2.60;98.20;;;;;;5010127;28;20496;-77
2022/04/01 06:58:21;;;;;;;1.60;1.40;;;2.60;98.20;;;;;;5011074;28;20858;-77
2022/04/01 07:00:48;;;;;;;1.60;1.40;;;2.60;98.20;;;;;;5021434;28;20463;-76
2022/04/01 07:03:15;;;;;;;1.60;1.40;;;2.60;98.20;;;;;;5013458;28;21007;-76
2022/04/01 07:05:44;;;;;;;1.60;1.40;;;2.60;98.20;;;;;;5012221;28;20721;-75
2022/04/01 07:08:11;;;;;;;1.60;1.50;;;2.60;98.20;;;;;;5009522;28;20528;-78
2022/04/01 07:10:39;;;;;;;1.60;1.50;;;2.60;98.20;;;;;;5009782;28;20477;-74
2022/04/01 07:13:06;;;;;;;1.60;1.40;;;2.60;98.20;;;;;;5023782;28;20474;-74
2022/04/01 07:15:33;;;;;;;1.60;1.50;;;2.60;98.20;;;;;;5023034;28;20494;-75
2022/04/01 07:18:01;;;;;;;1.60;1.40;;;2.60;98.20;;;;;;5029345;28;20459;-74
2022/04/01 07:20:28;;;;;;;1.60;1.50;;;2.60;98.20;;;;;;5013863;28;20631;-74
2022/04/01 07:22:57;;;;;;;1.57;1.40;;;2.60;98.20;;;;;;5018024;28;20460;-75
2022/04/01 07:25:24;;;;;;;1.60;1.40;;;2.60;98.20;;;;;;5014053;28;20488;-74
2022/04/01 07:27:52;;;;;;;1.60;1.40;;;2.60;98.20;;;;;;5013471;28;20472;-74
2022/04/01 07:30:19;;;;;;;2.30;2.10;;;2.60;98.20;;;;;;5018852;28;20466;-74
2022/04/01 07:32:47;;;;;;;1.60;1.50;;;2.60;98.20;;;;;;5018773;28;20594;-74
2022/04/01 07:35:15;;;;;;;1.87;1.77;;;2.60;98.20;;;;;;5024106;28;20488;-74
2022/04/01 07:37:43;;;;;;;1.60;1.50;;;2.60;98.20;;;;;;5020423;28;20498;-75
2022/04/01 07:40:13;;;;;;;1.57;1.40;;;2.60;98.20;;;;;;5019307;28;20482;-75
2022/04/01 07:42:41;;;;;;;1.60;1.40;;;2.60;98.20;;;;;;5019720;28;20555;-74
2022/04/01 07:45:09;;;;;;;1.60;1.40;;;2.60;98.20;;;;;;5031213;28;20494;-75
2022/04/01 07:47:36;;;;;;;1.60;1.40;;;2.70;98.20;;;;;;5042105;28;20943;-79
2022/04/01 07:50:05;;;;;;;1.60;1.43;;;2.70;98.20;;;;;;5026307;28;21094;-77
2022/04/01 07:52:33;;;;;;;1.87;1.77;;;2.70;98.20;;;;;;5015245;28;20456;-78
2022/04/01 07:55:01;;;;;;;1.60;1.40;;;2.70;98.20;;;;;;5024068;28;20479;-78
2022/04/01 07:57:29;;;;;;;1.57;1.30;;;2.70;98.20;;;;;;5019869;28;20464;-73
2022/04/01 07:59:56;;;;;;;1.60;1.40;;;2.70;98.20;;;;;;5012021;28;20570;-72
2022/04/01 08:02:22;;;;;;;1.60;1.40;;;2.70;98.20;;;;;;5017604;28;20883;-73
2022/04/01 08:04:49;;;;;;;1.60;1.40;;;2.70;98.20;;;;;;5024368;28;20477;-72
2022/04/01 08:07:16;;;;;;;1.60;1.40;;;2.70;98.20;;;;;;5018813;28;20960;-73
2022/04/01 08:09:43;;;;;;;1.57;1.30;;;2.70;98.20;;;;;;5012268;28;21087;-73
2022/04/01 08:12:10;;;;;;;1.60;1.50;;;2.70;98.20;;;;;;5012323;28;20479;-74
2022/04/01 08:14:39;;;;;;;1.60;1.40;;;2.70;98.20;;;;;;5030326;28;20494;-73
2022/04/01 08:17:11;;;;;;;1.60;1.50;;;2.70;98.20;;;;;;5032079;28;20963;-76
2022/04/01 08:19:38;;;;;;;1.57;1.40;;;2.60;98.20;;;;;;5023540;28;20547;-75
2022/04/01 08:22:05;;;;;;;1.70;1.60;;;2.60;98.20;;;;;;5015470;28;20964;-76
2022/04/01 08:24:31;;;;;;;1.60;1.50;;;2.60;98.20;;;;;;5022114;28;20852;-73
2022/04/01 08:27:00;;;;;;;1.60;1.40;;;2.60;98.20;;;;;;5020578;28;20552;-76
2022/04/01 08:29:27;;;;;;;1.53;1.40;;;2.60;98.20;;;;;;5017829;28;21003;-76
2022/04/01 08:31:55;;;;;;;10.10;2.90;;;2.70;98.20;;;;;;5022587;28;20494;-76
2022/04/01 08:34:22;;;;;;;1.60;1.40;;;2.70;98.20;;;;;;5031670;28;20487;-75
2022/04/01 08:36:50;;;;;;;1.60;1.50;;;2.60;98.20;;;;;;5022829;28;20469;-80
2022/04/01 08:39:17;;;;;;;1.60;1.40;;;2.60;98.20;;;;;;5012575;28;20467;-77
2022/04/01 08:41:44;;;;;;;1.60;1.40;;;2.50;98.20;;;;;;5012620;28;20471;-75
2022/04/01 08:44:10;;;;;;;1.60;1.40;;;2.60;98.20;;;;;;5013309;28;20866;-77
2022/04/01 08:46:37;;;;;;;1.60;1.30;;;2.60;98.20;;;;;;5024238;28;20497;-76
2022/04/01 08:49:06;;;;;;;1.60;1.40;;;2.60;98.20;;;;;;5028918;28;20456;-76
2022/04/01 08:51:33;;;;;;;1.60;1.40;;;2.60;98.20;;;;;;5022744;28;20470;-75
2022/04/01 08:54:02;;;;;;;1.60;1.40;;;2.60;98.20;;;;;;5012606;28;20491;-76
2022/04/01 08:56:28;;;;;;;1.57;1.40;;;2.60;98.20;;;;;;5017263;28;20935;-77
2022/04/01 08:58:55;;;;;;;1.60;1.40;;;2.60;98.20;;;;;;5013639;28;20478;-75
2022/04/01 09:01:22;;;;;;;1.60;1.40;;;2.60;98.20;;;;;;5031275;28;20463;-80
2022/04/01 09:03:49;;;;;;;1.60;1.40;;;2.60;98.20;;;;;;5013802;28;20865;-77
2022/04/01 09:06:19;;;;;;;1.60;1.50;;;2.60;98.20;;;;;;5020092;28;20494;-76
2022/04/01 09:08:46;;;;;;;1.60;1.40;;;2.60;98.20;;;;;;5022526;28;20468;-79
2022/04/01 09:11:16;;;;;;;1.60;1.40;;;2.60;98.20;;;;;;5014909;28;20461;-76
2022/04/01 09:13:51;;;;;;;1.60;1.40;;;2.60;98.20;;;;;;5012861;28;20503;-78
2022/04/01 09:16:27;;;;;;;1.60;1.50;;;2.60;98.20;;;;;;5024100;28;21014;-75
2022/04/01 09:18:55;;;;;;;1.60;1.50;;;2.60;98.20;;;;;;5023103;28;20456;-75
2022/04/01 09:21:28;;;;;;;1.50;1.40;;;2.60;98.20;;;;;;5058331;22;20494;-77
2022/04/01 09:23:56;;;;;;;1.60;1.40;;;2.60;98.20;;;;;;5050072;28;20463;-77
2022/04/01 09:26:29;;;;;;;1.57;1.40;;;2.50;98.20;;;;;;5049349;28;20857;-77
2022/04/01 09:28:56;;;;;;;2.57;2.37;;;2.50;98.20;;;;;;5046347;28;20462;-77
2022/04/01 09:31:25;;;;;;;1.60;1.50;;;2.50;98.20;;;;;;5038960;28;20573;-78
2022/04/01 09:33:54;;;;;;;1.50;1.40;;;2.50;98.20;;;;;;5028313;28;20554;-77
2022/04/01 09:36:24;;;;;;;1.60;1.40;;;2.50;98.20;;;;;;5028590;28;20459;-77
2022/04/01 09:38:57;;;;;;;1.60;1.40;;;2.50;98.20;;;;;;5022614;28;20851;-78
2022/04/01 09:41:31;;;;;;;1.60;1.50;;;2.50;98.20;;;;;;5020229;28;20490;-77
2022/04/01 09:44:20;;;;;;;1.60;1.40;;;2.60;98.20;;;;;;5029541;28;20463;-77
2022/04/01 09:46:50;;;;;;;1.97;1.87;;;2.60;98.20;;;;;;5022852;28;20491;-77
2022/04/01 09:49:31;;;;;;;1.60;1.40;;;2.60;98.20;;;;;;5028159;28;20805;-77
2022/04/01 09:51:58;;;;;;;1.60;1.50;;;2.60;98.20;;;;;;5025763;28;20482;-77
2022/04/01 09:54:27;;;;;;;1.60;1.50;;;2.60;98.20;;;;;;5028600;28;20501;-78
2022/04/01 09:56:56;;;;;;;1.70;1.60;;;2.60;98.20;;;;;;5022661;28;20455;-77
2022/04/01 09:59:24;;;;;;;1.70;1.60;;;2.60;98.20;;;;;;5027674;28;20463;-77
2022/04/01 10:01:51;;;;;;;1.57;1.40;;;2.60;98.20;;;;;;5025474;28;20541;-76
2022/04/01 10:04:18;;;;;;;1.57;1.40;;;2.60;98.20;;;;;;5028707;28;20463;-76
2022/04/01 10:06:46;;;;;;;1.60;1.50;;;2.60;98.20;;;;;;5028363;28;20493;-76
2022/04/01 10:09:13;;;;;;;1.60;1.43;;;2.60;98.20;;;;;;5028619;28;20859;-78
2022/04/01 10:11:43;;;;;;;1.60;1.40;;;2.60;98.20;;;;;;5026977;28;20490;-78
2022/04/01 10:14:12;;;;;;;1.60;1.33;;;2.60;98.20;;;;;;5028799;28;20847;-76
2022/04/01 10:16:42;;;;;;;1.60;1.40;;;2.70;98.20;;;;;;5027230;28;20464;-75
2022/04/01 10:19:13;;;;;;;1.60;1.30;;;2.70;98.20;;;;;;5027448;28;20469;-77
2022/04/01 10:21:43;;;;;;;1.60;1.50;;;2.80;98.20;;;;;;5024331;28;20676;-79
2022/04/01 10:24:18;;;;;;;1.60;1.30;;;2.80;98.20;;;;;;5027603;28;20463;-76
2022/04/01 10:27:01;;;;;;;1.63;1.53;;;2.90;98.20;;;;;;5025679;28;21020;-76
2022/04/01 10:29:28;;;;;;;1.60;1.50;;;2.90;98.20;;;;;;5009818;28;20467;-76
2022/04/01 10:31:55;;;;;;;1.60;1.40;;;3.00;98.20;;;;;;5047067;22;20508;-77
2022/04/01 10:34:26;;;;;;;1.60;1.40;;;3.00;98.20;;;;;;5054874;28;20458;-76
2022/04/01 10:36:59;;;;;;;1.60;1.50;;;2.90;98.20;;;;;;5047718;28;20827;-76
2022/04/01 10:39:28;;;;;;;1.60;1.40;;;3.00;98.20;;;;;;5045111;28;20470;-74
2022/04/01 10:42:12;;;;;;;1.60;1.40;;;3.00;98.20;;;;;;5047156;28;20573;-76
2022/04/01 10:44:49;;;;;;;1.60;1.40;;;3.10;98.20;;;;;;5026450;28;20467;-76
2022/04/01 10:47:16;;;;;;;1.60;1.40;;;3.10;98.20;;;;;;5038949;28;20578;-78
2022/04/01 10:52:30;;;;;;;1.60;1.40;;;3.10;98.20;;;;;;5045968;28;20493;-76
2022/04/01 10:55:14;;;;;;;1.53;1.30;;;3.20;98.20;;;;;;5047812;28;20966;-75
2022/04/01 10:57:45;;;;;;;1.60;1.40;;;3.20;98.20;;;;;;5032775;28;20490;-76
2022/04/01 11:00:15;;;;;;;1.50;1.30;;;3.20;98.20;;;;;;5044204;28;20525;-76
2022/04/01 11:02:43;;;;;;;1.60;1.40;;;3.30;98.20;;;;;;5044823;28;20478;-76
2022/04/01 11:05:32;;;;;;;1.60;1.40;;;3.20;98.20;;;;;;5037731;28;20467;-77
2022/04/01 11:08:19;;;;;;;1.53;1.30;;;3.10;98.20;;;;;;5038917;28;20906;-77
2022/04/01 11:11:06;;;;;;;1.60;1.50;;;3.10;98.20;;;;;;5045997;28;20695;-77
2022/04/01 11:13:36;;;;;;;1.60;1.40;;;3.10;98.20;;;;;;5019359;28;20473;-76
2022/04/01 11:16:25;;;;;;;1.60;1.50;;;3.10;98.20;;;;;;5030518;28;20483;-77
2022/04/01 11:19:13;;;;;;;1.60;1.30;;;3.20;98.20;;;;;;5033725;28;20463;-78
2022/04/01 11:21:41;;;;;;;1.60;1.43;;;3.20;98.20;;;;;;5027886;28;20494;-77
2022/04/01 11:24:30;;;;;;;1.60;1.40;;;3.10;98.20;;;;;;5025474;28;20753;-75
2022/04/01 11:27:02;;;;;;;1.60;1.47;;;3.20;98.20;;;;;;5030639;28;20513;-77
2022/04/01 11:29:30;;;;;;;1.60;1.40;;;3.20;98.20;;;;;;5026691;28;20545;-76
2022/04/01 11:32:04;;;;;;;1.60;1.40;;;3.20;98.20;;;;;;5068099;22;20507;-76
2022/04/01 11:34:30;;;;;;;1.60;1.40;;;3.20;98.20;;;;;;5065374;28;20527;-78
2022/04/01 11:37:02;;;;;;;1.60;1.43;;;3.10;98.20;;;;;;5073851;28;20455;-76
2022/04/01 11:39:30;;;;;;;1.60;1.40;;;3.10;98.20;;;;;;5047102;28;20852;-77
2022/04/01 11:41:57;;;;;;;1.57;1.40;;;3.10;98.20;;;;;;5053763;28;20579;-76
2022/04/01 11:44:25;;;;;;;13.20;12.40;;;3.10;98.20;;;;;;5045027;28;21192;-76
2022/04/01 11:46:58;;;;;;;1.60;1.50;;;3.10;98.20;;;;;;5060062;28;20473;-75
2022/04/01 11:49:31;;;;;;;1.50;1.30;;;3.10;98.20;;;;;;5062936;28;20476;-77
2022/04/01 11:51:58;;;;;;;1.60;1.40;;;3.10;98.20;;;;;;5061334;28;21074;-75
2022/04/01 11:54:27;;;;;;;1.57;1.37;;;3.10;98.20;;;;;;5084610;28;20537;-75
2022/04/01 11:56:55;;;;;;;1.60;1.40;;;3.10;98.20;;;;;;5072667;28;20449;-76
2022/04/01 11:59:25;;;;;;;1.57;1.40;;;3.10;98.20;;;;;;5064698;28;20719;-75
2022/04/01 12:01:57;;;;;;;1.57;1.30;;;3.10;98.20;;;;;;5072700;28;20902;-76
2022/04/01 12:04:30;;;;;;;1.60;1.40;;;3.10;98.20;;;;;;5085440;28;20835;-76
2022/04/01 12:09:45;;;;;;;1.60;1.50;;;3.10;98.20;;;;;;5051094;28;21030;-76
2022/04/01 12:12:12;;;;;;;1.60;1.40;;;3.10;98.20;;;;;;5068054;28;20508;-75
2022/04/01 12:14:40;;;;;;;1.60;1.43;;;3.20;98.20;;;;;;5088795;28;20453;-78
2022/04/01 12:17:10;;;;;;;1.57;1.37;;;3.10;98.20;;;;;;5078726;28;20453;-76
2022/04/01 12:19:37;;;;;;;1.57;1.30;;;3.10;98.20;;;;;;5067787;28;20496;-75
2022/04/01 12:22:05;;;;;;;1.60;1.40;;;3.10;98.20;;;;;;5076282;28;20515;-79
2022/04/01 12:24:34;;;;;;;1.53;1.40;;;3.10;98.20;;;;;;5089226;28;20824;-76
2022/04/01 12:27:01;;;;;;;1.60;1.30;;;3.10;98.20;;;;;;5078237;28;20467;-78
2022/04/01 12:29:29;;;;;;;1.53;1.30;;;3.10;98.20;;;;;;5066525;28;20489;-78
2022/04/01 12:31:58;;;;;;;1.60;1.40;;;3.10;98.20;;;;;;5066450;28;21027;-77
2022/04/01 12:34:27;;;;;;;1.57;1.40;;;3.10;98.20;;;;;;5056146;28;20469;-75
2022/04/01 12:36:59;;;;;;;1.60;1.40;;;3.10;98.20;;;;;;5066458;28;20788;-75
2022/04/01 12:39:26;;;;;;;1.57;1.30;;;3.30;98.20;;;;;;5068019;28;20534;-76
2022/04/01 12:41:55;;;;;;;1.60;1.37;;;3.30;98.20;;;;;;5066143;28;20480;-77
2022/04/01 12:44:24;;;;;;;1.53;1.30;;;3.40;98.20;;;;;;5088456;28;20471;-77
2022/04/01 12:46:51;;;;;;;1.57;1.40;;;3.40;98.20;;;;;;5079782;28;20504;-77
2022/04/01 12:49:20;;;;;;;1.53;1.30;;;3.50;98.20;;;;;;5067121;28;20454;-75
2022/04/01 12:51:54;;;;;;;1.53;1.30;;;3.50;98.20;;;;;;5074651;28;20476;-76
2022/04/01 12:54:29;;;;;;;2.20;2.10;;;3.50;98.20;;;;;;5088220;28;20498;-75
2022/04/01 12:56:56;;;;;;;4.33;3.93;;;3.60;98.20;;;;;;5077617;28;21185;-77
2022/04/01 12:59:25;;;;;;;1.60;1.30;;;3.80;98.20;;;;;;5066959;28;20461;-76
2022/04/01 13:02:03;;;;;;;1.50;1.30;;;3.80;97.80;;;;;;5063350;28;20469;-76
2022/04/01 13:04:38;;;;;;;1.60;1.30;;;3.80;98.20;;;;;;5082861;28;20801;-76
2022/04/01 13:07:09;;;;;;;1.60;1.30;;;3.80;98.20;;;;;;5078351;28;20799;-75
2022/04/01 13:09:51;;;;;;;1.60;1.40;;;3.70;98.20;;;;;;5064000;28;20908;-77
2022/04/01 13:12:18;;;;;;;1.57;1.30;;;3.70;98.20;;;;;;5071418;28;20866;-78
2022/04/01 13:14:46;;;;;;;1.57;1.30;;;3.60;98.20;;;;;;5087209;28;20463;-77
2022/04/01 13:17:15;;;;;;;1.60;1.40;;;3.70;98.20;;;;;;5076876;28;20453;-77
2022/04/01 13:19:44;;;;;;;1.60;1.40;;;3.80;98.20;;;;;;5054240;28;20458;-77